Time;durP1;ratioP1;P1;durP2;ratioP2;P2;SDS_P1;SDS_P2;PMS_P1;PMS_P2;Temp;Humidity;BMP_temperature;BMP_pressure;BME280_temperature;BME280_humidity;BME280_pressure;Samples;Min_cycle;Max_cycle;Signal;HPM_P1;HPM_P2
2022/12/20 00:00:33;;;;;;;92.25;25.85;;;;;;;;;;5051498;28;20245;-74
2022/12/20 00:03:00;;;;;;;88.57;24.13;;;;;;;;;;5052248;28;20664;-73
2022/12/20 00:05:27;;;;;;;87.68;23.30;;;;;;;;;;5052503;28;20203;-73
2022/12/20 00:07:54;;;;;;;91.20;24.10;;;;;;;;;;5052346;28;20214;-73
2022/12/20 00:10:21;;;;;;;95.85;24.98;;;;;;;;;;5051682;28;20589;-73
2022/12/20 00:12:50;;;;;;;87.60;23.88;;;;;;;;;;5052280;28;20208;-74
2022/12/20 00:15:17;;;;;;;92.45;23.65;;;;;;;;;;5051999;28;20222;-74
2022/12/20 00:17:44;;;;;;;88.78;24.65;;;;;;;;;;5052276;28;20207;-74
2022/12/20 00:20:11;;;;;;;92.93;24.20;;;;;;;;;;5051066;28;20233;-74
2022/12/20 00:22:38;;;;;;;91.57;24.65;;;;;;;;;;5052123;28;20211;-74
2022/12/20 00:25:06;;;;;;;88.53;24.08;;;;;;;;;;5051988;28;20210;-73
2022/12/20 00:27:33;;;;;;;88.63;23.20;;;;;;;;;;5052140;28;20638;-74
2022/12/20 00:30:01;;;;;;;91.78;23.65;;;;;;;;;;5050911;28;20233;-74
2022/12/20 00:32:29;;;;;;;90.68;24.20;;;;;;;;;;5051336;28;20589;-74
2022/12/20 00:34:56;;;;;;;89.88;23.42;;;;;;;;;;5052017;28;20207;-74
2022/12/20 00:37:23;;;;;;;90.72;23.30;;;;;;;;;;5052043;28;20695;-74
2022/12/20 00:39:50;;;;;;;88.78;24.48;;;;;;;;;;5050835;28;20232;-73
2022/12/20 00:42:17;;;;;;;87.05;23.50;;;;;;;;;;5051946;28;20203;-74
2022/12/20 00:44:44;;;;;;;94.00;26.00;;;;;;;;;;5051754;28;20435;-74
2022/12/20 00:47:13;;;;;;;87.85;22.77;;;;;;;;;;5051882;28;20207;-73
2022/12/20 00:49:40;;;;;;;87.05;24.30;;;;;;;;;;5051281;28;20292;-74
2022/12/20 00:52:07;;;;;;;83.60;21.67;;;;;;;;;;5051588;28;20203;-74
2022/12/20 00:54:35;;;;;;;84.18;23.73;;;;;;;;;;5051619;28;20225;-75
2022/12/20 00:57:02;;;;;;;87.68;23.35;;;;;;;;;;5051456;28;20215;-74
2022/12/20 00:59:29;;;;;;;87.30;23.35;;;;;;;;;;5050933;28;20225;-74
2022/12/20 01:01:56;;;;;;;84.75;22.52;;;;;;;;;;5051577;28;20234;-74
2022/12/20 01:04:24;;;;;;;86.60;22.15;;;;;;;;;;5051651;28;20208;-74
2022/12/20 01:06:52;;;;;;;86.55;20.92;;;;;;;;;;5051655;28;20313;-73
2022/12/20 01:09:19;;;;;;;85.03;22.25;;;;;;;;;;5050764;28;20207;-73
2022/12/20 01:11:46;;;;;;;85.90;22.60;;;;;;;;;;5051325;28;20728;-74
2022/12/20 01:14:15;;;;;;;84.32;21.08;;;;;;;;;;5051639;28;20208;-74
2022/12/20 01:16:43;;;;;;;83.60;22.83;;;;;;;;;;5051545;28;20207;-74
2022/12/20 01:19:11;;;;;;;87.53;22.48;;;;;;;;;;5050763;28;20214;-74
2022/12/20 01:21:43;;;;;;;85.15;22.17;;;;;;;;;;5051218;28;20227;-74
2022/12/20 01:24:10;;;;;;;84.10;21.92;;;;;;;;;;5051276;28;20208;-74
2022/12/20 01:26:37;;;;;;;84.75;22.10;;;;;;;;;;5051548;28;20212;-74
2022/12/20 01:29:04;;;;;;;85.15;21.88;;;;;;;;;;5050499;28;20675;-74
2022/12/20 01:31:31;;;;;;;84.03;22.17;;;;;;;;;;5051305;28;20239;-72
2022/12/20 01:33:59;;;;;;;82.47;21.55;;;;;;;;;;5051246;28;20208;-72
2022/12/20 01:36:28;;;;;;;91.38;23.40;;;;;;;;;;5051373;28;20207;-72
2022/12/20 01:38:58;;;;;;;84.53;21.38;;;;;;;;;;5050501;28;20577;-72
2022/12/20 01:41:25;;;;;;;89.78;24.88;;;;;;;;;;5051264;28;20234;-72
2022/12/20 01:43:54;;;;;;;84.28;21.88;;;;;;;;;;5053053;28;20216;-72
2022/12/20 01:46:22;;;;;;;86.65;22.70;;;;;;;;;;5054876;28;20213;-73
2022/12/20 01:48:51;;;;;;;87.43;22.88;;;;;;;;;;5054153;28;20219;-72
2022/12/20 01:51:19;;;;;;;82.60;22.17;;;;;;;;;;5054558;28;20226;-72
2022/12/20 01:53:46;;;;;;;86.00;22.42;;;;;;;;;;5054620;28;20683;-72
2022/12/20 01:56:15;;;;;;;87.65;23.52;;;;;;;;;;5054765;28;20589;-72
2022/12/20 01:58:42;;;;;;;85.28;23.25;;;;;;;;;;5053869;28;20205;-72
2022/12/20 02:01:09;;;;;;;83.18;21.80;;;;;;;;;;5054388;28;20224;-72
2022/12/20 02:03:38;;;;;;;84.45;22.25;;;;;;;;;;5054481;28;20203;-73
2022/12/20 02:06:15;;;;;;;84.75;20.77;;;;;;;;;;5054640;28;20207;-72
2022/12/20 02:08:42;;;;;;;86.15;22.90;;;;;;;;;;5053624;28;20704;-73
2022/12/20 02:11:14;;;;;;;83.22;20.40;;;;;;;;;;5054318;28;20227;-72
2022/12/20 02:13:48;;;;;;;81.70;20.92;;;;;;;;;;5054436;28;20211;-72
2022/12/20 02:16:19;;;;;;;84.32;21.77;;;;;;;;;;5054200;28;20209;-73
2022/12/20 02:18:50;;;;;;;86.65;20.98;;;;;;;;;;5053646;28;20219;-73
2022/12/20 02:21:29;;;;;;;87.90;22.83;;;;;;;;;;5054176;28;20239;-72
2022/12/20 02:24:07;;;;;;;84.70;21.30;;;;;;;;;;5054175;28;20214;-72
2022/12/20 02:26:43;;;;;;;80.93;20.65;;;;;;;;;;5054076;28;20208;-72
2022/12/20 02:29:21;;;;;;;85.05;20.65;;;;;;;;;;5053261;28;20672;-73
2022/12/20 02:31:51;;;;;;;81.45;19.85;;;;;;;;;;5050776;28;20226;-72
2022/12/20 02:34:20;;;;;;;82.18;21.02;;;;;;;;;;5053770;28;20219;-73
2022/12/20 02:36:47;;;;;;;86.75;21.98;;;;;;;;;;5053868;28;20727;-72
2022/12/20 02:39:15;;;;;;;83.15;20.40;;;;;;;;;;5053218;28;20210;-72
2022/12/20 02:41:44;;;;;;;84.07;19.75;;;;;;;;;;5053788;28;20598;-73
2022/12/20 02:47:04;;;;;;;85.13;21.67;;;;;;;;;;5054036;28;20223;-72
2022/12/20 02:49:33;;;;;;;83.40;19.60;;;;;;;;;;5053132;28;20208;-72
2022/12/20 02:52:01;;;;;;;85.47;20.48;;;;;;;;;;5053495;28;20230;-72
2022/12/20 02:54:29;;;;;;;84.45;21.55;;;;;;;;;;5053445;28;20208;-72
2022/12/20 02:57:00;;;;;;;81.13;19.77;;;;;;;;;;5053275;28;20207;-72
2022/12/20 02:59:30;;;;;;;78.18;18.25;;;;;;;;;;5053016;28;20191;-73
2022/12/20 03:01:57;;;;;;;81.40;19.55;;;;;;;;;;5053473;28;20584;-72
2022/12/20 03:04:27;;;;;;;85.88;21.30;;;;;;;;;;5053455;28;20203;-72
2022/12/20 03:06:58;;;;;;;80.68;21.52;;;;;;;;;;5053239;28;20212;-73
2022/12/20 03:09:25;;;;;;;84.15;19.60;;;;;;;;;;5052556;28;20676;-72
2022/12/20 03:11:52;;;;;;;85.75;21.40;;;;;;;;;;5053289;28;20219;-73
2022/12/20 03:14:20;;;;;;;86.28;21.25;;;;;;;;;;5053124;28;20206;-73
2022/12/20 03:16:47;;;;;;;83.10;19.92;;;;;;;;;;5053284;28;20677;-73
2022/12/20 03:19:14;;;;;;;83.13;21.92;;;;;;;;;;5052700;28;20574;-73
2022/12/20 03:21:43;;;;;;;85.15;20.60;;;;;;;;;;5052780;28;20696;-72
2022/12/20 03:24:12;;;;;;;81.45;20.15;;;;;;;;;;5052926;28;20679;-72
2022/12/20 03:26:39;;;;;;;82.82;20.23;;;;;;;;;;5052900;28;20213;-73
2022/12/20 03:29:06;;;;;;;84.18;20.80;;;;;;;;;;5052385;28;20221;-73
2022/12/20 03:31:34;;;;;;;87.50;23.00;;;;;;;;;;5052740;28;20235;-72
2022/12/20 03:34:01;;;;;;;80.80;19.60;;;;;;;;;;5052893;28;20206;-73
2022/12/20 03:36:28;;;;;;;83.88;19.60;;;;;;;;;;5052759;28;20212;-72
2022/12/20 03:38:57;;;;;;;78.88;19.38;;;;;;;;;;5051979;28;20217;-72
2022/12/20 03:41:24;;;;;;;81.50;19.58;;;;;;;;;;5052674;28;20232;-73
2022/12/20 03:43:52;;;;;;;82.45;22.05;;;;;;;;;;5052761;28;20840;-73
2022/12/20 03:46:19;;;;;;;80.97;20.15;;;;;;;;;;5052672;28;20204;-73
2022/12/20 03:48:46;;;;;;;84.15;20.75;;;;;;;;;;5051665;28;20207;-72
2022/12/20 03:51:13;;;;;;;82.82;20.80;;;;;;;;;;5052372;28;20252;-73
2022/12/20 03:53:40;;;;;;;87.15;21.05;;;;;;;;;;5052328;28;20211;-73
2022/12/20 03:56:09;;;;;;;85.25;19.95;;;;;;;;;;5052564;28;20202;-73
2022/12/20 03:58:36;;;;;;;85.47;21.65;;;;;;;;;;5051698;28;20210;-74
2022/12/20 04:01:03;;;;;;;87.65;21.63;;;;;;;;;;5052252;28;20711;-72
2022/12/20 04:03:30;;;;;;;85.57;21.80;;;;;;;;;;5052429;28;20210;-73
2022/12/20 04:05:58;;;;;;;87.72;21.30;;;;;;;;;;5052448;28;20212;-73
2022/12/20 04:08:25;;;;;;;87.55;20.98;;;;;;;;;;5051655;28;20214;-72
2022/12/20 04:13:38;;;;;;;81.95;20.80;;;;;;;;;;5052306;28;20222;-72
2022/12/20 04:16:05;;;;;;;85.50;19.80;;;;;;;;;;5052137;28;20228;-72
2022/12/20 04:18:32;;;;;;;85.80;20.52;;;;;;;;;;5051388;28;20212;-73
2022/12/20 04:21:00;;;;;;;81.63;20.67;;;;;;;;;;5051719;28;20707;-72
2022/12/20 04:23:27;;;;;;;84.93;20.83;;;;;;;;;;5052002;28;20213;-73
2022/12/20 04:25:54;;;;;;;84.40;22.08;;;;;;;;;;5051901;28;20207;-73
2022/12/20 04:28:21;;;;;;;86.82;22.15;;;;;;;;;;5051789;28;20212;-73
2022/12/20 04:30:50;;;;;;;88.45;22.20;;;;;;;;;;5050919;28;20241;-73
2022/12/20 04:33:17;;;;;;;80.03;19.95;;;;;;;;;;5052341;28;20407;-73
2022/12/20 04:35:44;;;;;;;83.18;21.90;;;;;;;;;;5051979;28;20208;-72
2022/12/20 04:38:11;;;;;;;85.32;21.77;;;;;;;;;;5051654;28;20206;-73
2022/12/20 04:40:38;;;;;;;88.03;22.13;;;;;;;;;;5051141;28;20231;-72
2022/12/20 04:43:05;;;;;;;81.63;21.58;;;;;;;;;;5051798;28;20206;-72
2022/12/20 04:45:32;;;;;;;87.15;21.63;;;;;;;;;;5051614;28;20212;-73
2022/12/20 04:48:01;;;;;;;89.03;20.63;;;;;;;;;;5051606;28;20209;-73
2022/12/20 04:50:28;;;;;;;83.13;21.27;;;;;;;;;;5050945;28;20240;-72
2022/12/20 04:55:49;;;;;;;83.72;20.27;;;;;;;;;;5015839;28;20624;-73
2022/12/20 04:58:16;;;;;;;83.43;21.20;;;;;;;;;;5051624;28;20212;-72
2022/12/20 05:00:43;;;;;;;82.65;20.88;;;;;;;;;;5051176;28;20703;-72
2022/12/20 05:03:11;;;;;;;83.53;20.77;;;;;;;;;;5051575;28;20240;-73
2022/12/20 05:05:38;;;;;;;86.63;20.80;;;;;;;;;;5051806;28;20209;-72
2022/12/20 05:08:06;;;;;;;90.72;21.92;;;;;;;;;;5051411;28;20311;-72
2022/12/20 05:10:33;;;;;;;89.05;22.85;;;;;;;;;;5050548;28;20736;-72
2022/12/20 05:13:00;;;;;;;83.70;20.50;;;;;;;;;;5051838;28;20207;-72
2022/12/20 05:15:28;;;;;;;85.35;21.70;;;;;;;;;;5051731;28;20218;-73
2022/12/20 05:17:58;;;;;;;88.03;23.42;;;;;;;;;;5051768;28;20206;-73
2022/12/20 05:20:27;;;;;;;82.43;20.13;;;;;;;;;;5054991;28;20236;-72
2022/12/20 05:28:30;;;;;;;92.20;21.23;;;;;;;;;;5054986;28;20682;-74
2022/12/20 05:30:57;;;;;;;84.00;21.55;;;;;;;;;;5054851;28;20245;-72
2022/12/20 05:33:24;;;;;;;89.97;22.27;;;;;;;;;;5055027;28;20206;-73
2022/12/20 05:35:52;;;;;;;83.18;20.70;;;;;;;;;;5040982;28;20208;-73
2022/12/20 05:38:20;;;;;;;84.45;21.50;;;;;;;;;;5035203;28;20207;-72
2022/12/20 05:40:48;;;;;;;85.35;21.75;;;;;;;;;;5034423;28;20232;-73
2022/12/20 05:43:15;;;;;;;83.43;20.17;;;;;;;;;;5035009;28;20228;-72
2022/12/20 05:45:46;;;;;;;85.65;22.60;;;;;;;;;;5035088;28;20212;-72
2022/12/20 05:48:13;;;;;;;82.95;22.08;;;;;;;;;;5034714;28;20223;-73
2022/12/20 05:50:40;;;;;;;82.22;19.90;;;;;;;;;;5033795;28;20893;-72
2022/12/20 05:53:09;;;;;;;81.30;20.13;;;;;;;;;;5034928;28;20206;-72
2022/12/20 05:55:36;;;;;;;83.50;20.30;;;;;;;;;;5034696;28;20288;-72
2022/12/20 05:58:03;;;;;;;83.15;20.48;;;;;;;;;;5034706;28;20244;-73
2022/12/20 06:00:30;;;;;;;80.20;19.58;;;;;;;;;;5033755;28;20235;-72
2022/12/20 06:02:57;;;;;;;82.72;19.48;;;;;;;;;;5034664;28;20594;-73
2022/12/20 06:05:25;;;;;;;79.15;19.73;;;;;;;;;;5034750;28;20299;-73
2022/12/20 06:07:52;;;;;;;80.47;20.60;;;;;;;;;;5034648;28;20225;-73
2022/12/20 06:10:20;;;;;;;84.70;22.08;;;;;;;;;;5033773;28;20239;-74
2022/12/20 06:12:47;;;;;;;86.25;23.15;;;;;;;;;;5034456;28;20294;-73
2022/12/20 06:15:15;;;;;;;84.90;21.48;;;;;;;;;;5034398;28;20213;-73
2022/12/20 06:17:42;;;;;;;83.05;21.95;;;;;;;;;;5034519;28;20430;-73
2022/12/20 06:20:11;;;;;;;85.65;21.88;;;;;;;;;;5033679;28;20236;-73
2022/12/20 06:22:38;;;;;;;80.45;20.13;;;;;;;;;;5034294;28;20257;-73
2022/12/20 06:25:06;;;;;;;78.65;19.90;;;;;;;;;;5034320;28;20210;-73
2022/12/20 06:27:34;;;;;;;86.40;19.92;;;;;;;;;;5034029;28;20250;-73
2022/12/20 06:30:03;;;;;;;81.60;20.80;;;;;;;;;;5032297;28;20751;-73
2022/12/20 06:32:30;;;;;;;79.68;19.60;;;;;;;;;;5034089;28;20603;-74
2022/12/20 06:34:57;;;;;;;82.35;19.73;;;;;;;;;;5034029;28;20217;-73
2022/12/20 06:37:24;;;;;;;82.55;20.83;;;;;;;;;;5034123;28;20296;-74
2022/12/20 06:39:51;;;;;;;77.88;18.23;;;;;;;;;;5033021;28;20213;-74
2022/12/20 06:42:18;;;;;;;83.63;20.65;;;;;;;;;;5033953;28;20580;-74
2022/12/20 06:44:47;;;;;;;83.55;19.80;;;;;;;;;;5033985;28;20212;-73
2022/12/20 06:47:14;;;;;;;89.22;20.73;;;;;;;;;;5033948;28;20315;-73
2022/12/20 06:49:41;;;;;;;84.80;21.35;;;;;;;;;;5033123;28;20556;-72
2022/12/20 06:52:08;;;;;;;85.90;21.35;;;;;;;;;;5033830;28;20208;-73
2022/12/20 06:54:35;;;;;;;91.43;27.17;;;;;;;;;;5033691;28;20678;-74
2022/12/20 06:57:02;;;;;;;92.28;26.33;;;;;;;;;;5033568;28;20222;-73
2022/12/20 06:59:29;;;;;;;85.55;20.67;;;;;;;;;;5033017;28;20219;-73
2022/12/20 07:01:58;;;;;;;82.90;19.48;;;;;;;;;;5033231;28;20710;-74
2022/12/20 07:04:25;;;;;;;80.57;18.98;;;;;;;;;;5033367;28;20694;-73
2022/12/20 07:06:52;;;;;;;81.55;20.50;;;;;;;;;;5033602;28;20219;-73
2022/12/20 07:09:19;;;;;;;85.53;21.05;;;;;;;;;;5032621;28;20575;-73
2022/12/20 07:11:46;;;;;;;82.85;20.75;;;;;;;;;;5033559;28;20590;-73
2022/12/20 07:14:13;;;;;;;81.43;20.55;;;;;;;;;;5033367;28;20213;-73
2022/12/20 07:16:42;;;;;;;85.55;21.40;;;;;;;;;;5033211;28;20219;-73
2022/12/20 07:19:11;;;;;;;82.60;20.98;;;;;;;;;;5032528;28;20216;-73
2022/12/20 07:21:39;;;;;;;84.28;21.40;;;;;;;;;;5033007;28;20229;-73
2022/12/20 07:24:06;;;;;;;81.55;20.05;;;;;;;;;;5032949;28;20785;-73
2022/12/20 07:26:33;;;;;;;82.95;21.50;;;;;;;;;;5032994;28;20220;-73
2022/12/20 07:29:00;;;;;;;84.45;21.55;;;;;;;;;;5032332;28;20211;-73
2022/12/20 07:31:28;;;;;;;83.55;20.85;;;;;;;;;;5032788;28;20236;-73
2022/12/20 07:33:55;;;;;;;84.82;22.55;;;;;;;;;;5033072;28;20200;-73
2022/12/20 07:36:23;;;;;;;84.80;20.50;;;;;;;;;;5032732;28;20239;-73
2022/12/20 07:38:50;;;;;;;81.90;19.35;;;;;;;;;;5032243;28;20213;-73
2022/12/20 07:41:18;;;;;;;85.95;21.67;;;;;;;;;;5032450;28;20234;-73
2022/12/20 07:43:45;;;;;;;81.53;19.67;;;;;;;;;;5032849;28;20230;-74
2022/12/20 07:46:13;;;;;;;80.75;20.42;;;;;;;;;;5032746;28;20209;-73
2022/12/20 07:48:40;;;;;;;88.60;22.98;;;;;;;;;;5031854;28;20206;-73
2022/12/20 07:51:09;;;;;;;86.95;21.25;;;;;;;;;;5032504;28;20240;-74
2022/12/20 07:53:40;;;;;;;82.50;21.92;;;;;;;;;;5032678;28;20295;-73
2022/12/20 07:56:08;;;;;;;79.95;19.42;;;;;;;;;;5032653;28;20236;-74
2022/12/20 07:58:36;;;;;;;84.22;20.13;;;;;;;;;;5031641;28;20203;-73
2022/12/20 08:01:03;;;;;;;77.93;19.25;;;;;;;;;;5032174;28;20243;-74
2022/12/20 08:03:33;;;;;;;84.45;21.38;;;;;;;;;;5032398;28;20253;-74
2022/12/20 08:06:02;;;;;;;83.97;19.58;;;;;;;;;;5032441;28;20212;-74
2022/12/20 08:08:30;;;;;;;80.90;20.17;;;;;;;;;;5031999;28;20712;-73
2022/12/20 08:10:59;;;;;;;84.57;21.10;;;;;;;;;;5032058;28;20235;-73
2022/12/20 08:13:26;;;;;;;91.93;24.25;;;;;;;;;;5032203;28;20199;-73
2022/12/20 08:15:53;;;;;;;83.38;20.40;;;;;;;;;;5031969;28;20213;-72
2022/12/20 08:18:20;;;;;;;82.93;21.13;;;;;;;;;;5032332;28;20228;-73
2022/12/20 08:20:47;;;;;;;86.72;22.25;;;;;;;;;;5031699;28;20229;-73
2022/12/20 08:23:15;;;;;;;84.63;22.67;;;;;;;;;;5032103;28;20234;-74
2022/12/20 08:25:42;;;;;;;89.95;23.33;;;;;;;;;;5031904;28;20217;-73
2022/12/20 08:28:10;;;;;;;82.05;19.75;;;;;;;;;;5032008;28;20216;-73
2022/12/20 08:30:37;;;;;;;83.05;21.30;;;;;;;;;;5031345;28;20255;-73
2022/12/20 08:33:05;;;;;;;83.95;20.92;;;;;;;;;;5032063;28;20211;-73
2022/12/20 08:35:32;;;;;;;81.60;20.25;;;;;;;;;;5031863;28;20268;-73
2022/12/20 08:37:59;;;;;;;82.35;21.75;;;;;;;;;;5032409;28;20212;-72
2022/12/20 08:40:26;;;;;;;89.25;21.20;;;;;;;;;;5030997;28;20227;-73
2022/12/20 08:42:53;;;;;;;82.60;21.77;;;;;;;;;;5031744;28;20235;-73
2022/12/20 08:45:22;;;;;;;85.95;22.30;;;;;;;;;;5031674;28;20214;-72
2022/12/20 08:47:49;;;;;;;80.80;21.02;;;;;;;;;;5032057;28;20360;-72
2022/12/20 08:50:16;;;;;;;94.90;22.17;;;;;;;;;;5030930;28;20226;-73
2022/12/20 08:52:43;;;;;;;84.47;21.63;;;;;;;;;;5031028;28;20207;-72
2022/12/20 08:55:10;;;;;;;85.72;20.35;;;;;;;;;;5031636;28;20589;-72
2022/12/20 08:57:37;;;;;;;79.60;21.17;;;;;;;;;;5031439;28;20222;-73
2022/12/20 09:00:05;;;;;;;79.32;19.00;;;;;;;;;;5030651;28;20665;-72
2022/12/20 09:02:36;;;;;;;80.65;19.42;;;;;;;;;;5031642;28;20272;-71
2022/12/20 09:05:04;;;;;;;78.95;18.95;;;;;;;;;;5031802;28;20213;-72
2022/12/20 09:07:32;;;;;;;80.88;19.80;;;;;;;;;;5031927;28;20663;-73
2022/12/20 09:09:59;;;;;;;81.57;20.15;;;;;;;;;;5030561;28;20213;-72
2022/12/20 09:12:26;;;;;;;87.18;20.90;;;;;;;;;;5031536;28;20209;-73
2022/12/20 09:14:53;;;;;;;84.13;20.55;;;;;;;;;;5031088;28;20213;-73
2022/12/20 09:17:20;;;;;;;84.32;20.48;;;;;;;;;;5031348;28;20209;-73
2022/12/20 09:19:49;;;;;;;79.05;19.00;;;;;;;;;;5030531;28;20210;-73
2022/12/20 09:22:16;;;;;;;76.80;18.42;;;;;;;;;;5031420;28;20210;-73
2022/12/20 09:24:44;;;;;;;77.28;18.88;;;;;;;;;;5031296;28;20215;-72
2022/12/20 09:27:11;;;;;;;79.30;18.35;;;;;;;;;;5031454;28;20300;-72
2022/12/20 09:29:38;;;;;;;77.15;16.73;;;;;;;;;;5030945;28;20202;-72
2022/12/20 09:32:05;;;;;;;73.18;16.50;;;;;;;;;;5031238;28;20590;-73
2022/12/20 09:34:32;;;;;;;77.55;17.88;;;;;;;;;;5031279;28;20685;-72
2022/12/20 09:37:01;;;;;;;74.55;17.38;;;;;;;;;;5031455;28;20206;-73
2022/12/20 09:39:28;;;;;;;79.20;17.85;;;;;;;;;;5030460;28;20218;-73
2022/12/20 09:41:55;;;;;;;78.15;18.70;;;;;;;;;;5031128;28;20233;-73
2022/12/20 09:44:25;;;;;;;77.28;15.70;;;;;;;;;;5031114;28;20226;-73
2022/12/20 09:46:55;;;;;;;74.80;17.05;;;;;;;;;;5031503;28;20217;-73
2022/12/20 09:49:23;;;;;;;75.88;16.52;;;;;;;;;;5030594;28;20206;-73
2022/12/20 09:51:57;;;;;;;78.72;18.40;;;;;;;;;;5030949;28;20234;-73
2022/12/20 09:54:30;;;;;;;72.82;15.43;;;;;;;;;;5031295;28;20585;-73
2022/12/20 09:57:00;;;;;;;75.70;17.77;;;;;;;;;;5031445;28;20261;-73
2022/12/20 09:59:28;;;;;;;76.22;16.55;;;;;;;;;;5030763;28;20211;-73
2022/12/20 10:01:55;;;;;;;78.43;16.05;;;;;;;;;;5030944;28;20717;-73
2022/12/20 10:04:23;;;;;;;78.40;17.17;;;;;;;;;;5031071;28;20225;-73
2022/12/20 10:07:02;;;;;;;76.57;16.40;;;;;;;;;;5034320;28;20301;-73
2022/12/20 10:09:43;;;;;;;76.32;15.13;;;;;;;;;;5033975;28;20467;-74
2022/12/20 10:12:14;;;;;;;74.38;14.80;;;;;;;;;;5034519;28;20232;-74
2022/12/20 10:14:48;;;;;;;73.97;15.63;;;;;;;;;;5034586;28;20289;-74
2022/12/20 10:17:17;;;;;;;72.93;14.70;;;;;;;;;;5034546;28;20674;-73
2022/12/20 10:20:03;;;;;;;78.63;14.73;;;;;;;;;;5033650;28;20455;-73
2022/12/20 10:22:33;;;;;;;76.22;15.35;;;;;;;;;;5034652;28;20205;-73
2022/12/20 10:25:03;;;;;;;70.03;13.67;;;;;;;;;;5031133;28;20622;-75
2022/12/20 10:27:30;;;;;;;72.10;14.70;;;;;;;;;;5033973;28;20449;-74
2022/12/20 10:29:58;;;;;;;92.72;27.33;;;;;;;;;;5033210;28;20457;-75
2022/12/20 10:32:25;;;;;;;110.65;43.38;;;;;;;;;;5033692;28;20222;-75
2022/12/20 10:34:55;;;;;;;85.80;22.95;;;;;;;;;;5033496;28;20214;-75
2022/12/20 10:37:23;;;;;;;81.45;21.75;;;;;;;;;;5033652;28;20213;-76
2022/12/20 10:39:51;;;;;;;85.63;22.05;;;;;;;;;;5032779;28;20646;-74
2022/12/20 10:42:27;;;;;;;84.87;22.80;;;;;;;;;;5033459;28;20208;-73
2022/12/20 10:44:55;;;;;;;111.10;33.87;;;;;;;;;;5033681;28;20514;-75
2022/12/20 10:47:30;;;;;;;102.18;31.42;;;;;;;;;;5033406;28;20459;-74
2022/12/20 10:50:08;;;;;;;84.85;20.40;;;;;;;;;;5033203;28;20206;-75
2022/12/20 10:52:36;;;;;;;75.33;14.33;;;;;;;;;;5033053;28;20213;-73
2022/12/20 10:55:03;;;;;;;78.83;15.07;;;;;;;;;;5033811;28;20459;-74
2022/12/20 10:57:32;;;;;;;91.50;26.03;;;;;;;;;;5033757;28;20459;-74
2022/12/20 11:00:00;;;;;;;72.97;16.10;;;;;;;;;;5032857;28;20504;-75
2022/12/20 11:02:29;;;;;;;97.10;28.13;;;;;;;;;;5033466;28;20456;-75
2022/12/20 11:05:00;;;;;;;95.83;30.60;;;;;;;;;;5033646;28;20517;-74
2022/12/20 11:07:28;;;;;;;90.47;27.93;;;;;;;;;;5033383;28;20454;-74
2022/12/20 11:09:56;;;;;;;86.30;25.97;;;;;;;;;;5032577;28;20460;-74
2022/12/20 11:12:23;;;;;;;75.77;18.13;;;;;;;;;;5033574;28;20457;-75
2022/12/20 11:15:07;;;;;;;78.70;20.10;;;;;;;;;;5033380;28;20449;-75
2022/12/20 11:17:37;;;;;;;78.27;20.23;;;;;;;;;;5033024;28;20453;-74
2022/12/20 11:20:22;;;;;;;75.23;17.20;;;;;;;;;;5032452;28;20565;-74
2022/12/20 11:22:55;;;;;;;78.37;18.17;;;;;;;;;;5033084;28;20480;-75
2022/12/20 11:25:32;;;;;;;79.97;16.87;;;;;;;;;;5033181;28;20453;-74
2022/12/20 11:28:09;;;;;;;75.90;15.83;;;;;;;;;;5047138;28;20444;-75
2022/12/20 11:30:41;;;;;;;75.20;16.40;;;;;;;;;;5052330;28;20483;-75
2022/12/20 11:33:15;;;;;;;73.53;15.40;;;;;;;;;;5053052;28;20444;-75
2022/12/20 11:35:48;;;;;;;74.80;17.33;;;;;;;;;;5053007;28;20448;-75
2022/12/20 11:38:18;;;;;;;78.00;15.80;;;;;;;;;;5053104;28;20437;-74
2022/12/20 11:40:50;;;;;;;75.77;15.30;;;;;;;;;;5052104;28;20472;-74
2022/12/20 11:43:26;;;;;;;71.80;16.23;;;;;;;;;;5052869;28;20445;-74
2022/12/20 11:46:04;;;;;;;73.87;15.50;;;;;;;;;;5052852;28;20460;-74
2022/12/20 11:48:39;;;;;;;76.37;16.40;;;;;;;;;;5051938;28;20510;-75
2022/12/20 11:51:12;;;;;;;74.07;19.43;;;;;;;;;;5052529;28;20471;-74
2022/12/20 11:53:42;;;;;;;78.80;19.90;;;;;;;;;;5052541;28;20480;-74
2022/12/20 11:56:10;;;;;;;71.70;13.83;;;;;;;;;;5052554;28;20448;-75
2022/12/20 11:58:45;;;;;;;73.23;15.13;;;;;;;;;;5051552;28;20915;-75
2022/12/20 12:01:15;;;;;;;73.60;15.60;;;;;;;;;;5052546;28;20495;-76
2022/12/20 12:03:44;;;;;;;75.60;14.40;;;;;;;;;;5052615;28;20904;-74
2022/12/20 12:06:16;;;;;;;75.17;15.63;;;;;;;;;;5052300;28;21048;-76
2022/12/20 12:08:46;;;;;;;78.00;18.00;;;;;;;;;;5051484;28;20452;-76
2022/12/20 12:11:16;;;;;;;74.40;15.40;;;;;;;;;;5052198;28;20465;-76
2022/12/20 12:13:44;;;;;;;74.40;15.13;;;;;;;;;;5052028;28;20927;-75
2022/12/20 12:16:13;;;;;;;73.10;15.33;;;;;;;;;;5051956;28;20464;-75
2022/12/20 12:18:41;;;;;;;78.07;18.97;;;;;;;;;;5051480;28;20458;-75
2022/12/20 12:21:11;;;;;;;77.33;18.33;;;;;;;;;;5052173;28;20779;-75
2022/12/20 12:23:41;;;;;;;77.63;19.52;;;;;;;;;;5051891;28;20448;-75
2022/12/20 12:26:12;;;;;;;73.22;16.40;;;;;;;;;;5052018;28;20678;-75
2022/12/20 12:28:39;;;;;;;76.47;15.10;;;;;;;;;;5050672;28;20216;-75
2022/12/20 12:31:09;;;;;;;72.83;17.27;;;;;;;;;;5052059;28;20492;-74
2022/12/20 12:33:38;;;;;;;75.27;16.77;;;;;;;;;;5051926;28;20488;-74
2022/12/20 12:36:13;;;;;;;76.77;16.20;;;;;;;;;;5051716;28;20445;-74
2022/12/20 12:38:51;;;;;;;72.10;14.90;;;;;;;;;;5051036;28;20463;-74
2022/12/20 12:41:43;;;;;;;78.67;16.77;;;;;;;;;;5051882;28;20468;-74
2022/12/20 12:44:26;;;;;;;75.43;16.10;;;;;;;;;;5032097;28;20448;-74
2022/12/20 12:46:56;;;;;;;74.93;16.10;;;;;;;;;;5051643;28;20444;-74
2022/12/20 12:49:24;;;;;;;75.67;16.10;;;;;;;;;;5050943;28;20769;-75
2022/12/20 12:51:54;;;;;;;72.90;15.77;;;;;;;;;;5051724;28;20464;-75
2022/12/20 12:54:22;;;;;;;78.53;16.57;;;;;;;;;;5051511;28;20510;-75
2022/12/20 12:56:50;;;;;;;77.67;17.23;;;;;;;;;;5051675;28;20829;-75
2022/12/20 12:59:22;;;;;;;81.13;19.73;;;;;;;;;;5050621;28;20458;-75
2022/12/20 13:01:52;;;;;;;83.33;19.67;;;;;;;;;;5051838;28;20506;-74
2022/12/20 13:04:27;;;;;;;78.67;18.00;;;;;;;;;;5051076;28;20980;-75
2022/12/20 13:07:03;;;;;;;78.27;16.13;;;;;;;;;;5051066;28;20459;-75
2022/12/20 13:09:41;;;;;;;74.93;15.70;;;;;;;;;;5050166;28;20454;-75
2022/12/20 13:12:23;;;;;;;74.87;16.57;;;;;;;;;;5051140;28;20459;-74
2022/12/20 13:14:50;;;;;;;75.50;15.17;;;;;;;;;;5007703;28;20848;-74
2022/12/20 13:17:41;;;;;;;75.30;16.43;;;;;;;;;;5051026;28;20467;-75
2022/12/20 13:20:16;;;;;;;72.53;15.47;;;;;;;;;;5030655;28;20472;-75
2022/12/20 13:22:58;;;;;;;77.37;16.80;;;;;;;;;;5051201;28;20452;-75
2022/12/20 13:25:31;;;;;;;77.70;16.20;;;;;;;;;;5051409;28;20455;-75
2022/12/20 13:28:14;;;;;;;78.13;16.03;;;;;;;;;;5051370;28;20798;-75
2022/12/20 13:30:41;;;;;;;73.33;16.53;;;;;;;;;;5050189;28;20570;-75
2022/12/20 13:33:23;;;;;;;69.87;13.77;;;;;;;;;;5051413;28;21194;-75
2022/12/20 13:36:02;;;;;;;73.60;15.63;;;;;;;;;;5051790;28;20898;-74
2022/12/20 13:38:50;;;;;;;73.67;15.37;;;;;;;;;;5050739;28;20484;-75
2022/12/20 13:41:44;;;;;;;69.57;13.73;;;;;;;;;;5055197;28;20482;-75
2022/12/20 13:44:45;;;;;;;75.80;14.77;;;;;;;;;;5055310;28;20440;-74
2022/12/20 13:47:24;;;;;;;71.67;14.40;;;;;;;;;;5054942;28;20797;-74
2022/12/20 13:49:51;;;;;;;73.37;14.33;;;;;;;;;;5054193;28;20459;-75
2022/12/20 13:52:25;;;;;;;69.50;12.73;;;;;;;;;;5054677;28;20467;-75
2022/12/20 13:54:54;;;;;;;74.00;16.37;;;;;;;;;;5054754;28;20484;-75
2022/12/20 13:57:25;;;;;;;79.77;18.97;;;;;;;;;;5054650;28;20874;-75
2022/12/20 13:59:54;;;;;;;79.80;20.30;;;;;;;;;;5053822;28;20470;-74
2022/12/20 14:02:24;;;;;;;73.80;16.70;;;;;;;;;;5054928;28;20451;-75
2022/12/20 14:04:57;;;;;;;72.83;16.37;;;;;;;;;;5055023;28;20447;-75
2022/12/20 14:07:25;;;;;;;73.63;15.13;;;;;;;;;;5054505;28;20524;-75
2022/12/20 14:09:56;;;;;;;76.70;17.10;;;;;;;;;;5053706;28;20451;-74
2022/12/20 14:12:23;;;;;;;77.53;18.00;;;;;;;;;;5054530;28;20944;-75
2022/12/20 14:14:51;;;;;;;74.20;15.63;;;;;;;;;;5054575;28;20491;-75
2022/12/20 14:17:19;;;;;;;83.33;18.77;;;;;;;;;;5054479;28;20455;-75
2022/12/20 14:19:47;;;;;;;76.43;16.63;;;;;;;;;;5054023;28;20471;-75
2022/12/20 14:22:14;;;;;;;75.87;16.50;;;;;;;;;;5054229;28;20972;-74
2022/12/20 14:24:43;;;;;;;74.33;17.77;;;;;;;;;;5054102;28;20450;-74
2022/12/20 14:27:12;;;;;;;76.90;18.50;;;;;;;;;;5054295;28;20452;-74
2022/12/20 14:29:40;;;;;;;79.70;21.20;;;;;;;;;;5053762;28;20448;-75
2022/12/20 14:32:07;;;;;;;75.40;17.07;;;;;;;;;;5053973;28;20480;-75
2022/12/20 14:34:36;;;;;;;73.37;16.23;;;;;;;;;;5054097;28;20493;-75
2022/12/20 14:37:21;;;;;;;78.17;16.70;;;;;;;;;;5054069;28;20449;-75
2022/12/20 14:39:56;;;;;;;71.70;16.20;;;;;;;;;;5052981;28;20448;-75
2022/12/20 14:42:23;;;;;;;75.60;15.70;;;;;;;;;;5054108;28;20450;-74